sensor_id;sensor_type;location;lat;lon;timestamp;temperature;humidity
26803;DHT22;14378;51.796;5.808;2023-07-31T00:01:47;16.60;99.90
26803;DHT22;14378;51.796;5.808;2023-07-31T00:03:48;16.60;99.90
26803;DHT22;14378;51.796;5.808;2023-07-31T00:05:49;16.60;99.90
26803;DHT22;14378;51.796;5.808;2023-07-31T00:07:49;16.60;99.90
26803;DHT22;14378;51.796;5.808;2023-07-31T00:09:50;16.60;99.90
26803;DHT22;14378;51.796;5.808;2023-07-31T00:11:51;16.60;99.90
26803;DHT22;14378;51.796;5.808;2023-07-31T00:13:53;16.60;99.90
26803;DHT22;14378;51.796;5.808;2023-07-31T00:15:54;16.60;99.90
26803;DHT22;14378;51.796;5.808;2023-07-31T00:17:55;16.60;99.90
26803;DHT22;14378;51.796;5.808;2023-07-31T00:19:55;16.60;99.90
26803;DHT22;14378;51.796;5.808;2023-07-31T00:21:56;16.60;99.90
26803;DHT22;14378;51.796;5.808;2023-07-31T00:23:59;16.70;99.90
26803;DHT22;14378;51.796;5.808;2023-07-31T00:26:00;16.70;99.90
26803;DHT22;14378;51.796;5.808;2023-07-31T00:28:01;16.80;99.90
26803;DHT22;14378;51.796;5.808;2023-07-31T00:30:01;16.80;99.90
26803;DHT22;14378;51.796;5.808;2023-07-31T00:32:03;16.80;99.90
26803;DHT22;14378;51.796;5.808;2023-07-31T00:34:03;16.80;99.90
26803;DHT22;14378;51.796;5.808;2023-07-31T00:36:04;16.90;99.90
26803;DHT22;14378;51.796;5.808;2023-07-31T00:38:05;16.90;99.90
26803;DHT22;14378;51.796;5.808;2023-07-31T00:40:08;16.90;99.90
26803;DHT22;14378;51.796;5.808;2023-07-31T00:42:09;16.90;99.90
26803;DHT22;14378;51.796;5.808;2023-07-31T00:44:10;16.90;99.90
26803;DHT22;14378;51.796;5.808;2023-07-31T00:46:10;16.90;99.90
26803;DHT22;14378;51.796;5.808;2023-07-31T00:48:11;17.00;99.90
26803;DHT22;14378;51.796;5.808;2023-07-31T00:50:13;17.00;99.90
26803;DHT22;14378;51.796;5.808;2023-07-31T00:52:15;16.90;99.90
26803;DHT22;14378;51.796;5.808;2023-07-31T00:54:16;17.00;99.90
26803;DHT22;14378;51.796;5.808;2023-07-31T00:56:17;17.00;99.90
26803;DHT22;14378;51.796;5.808;2023-07-31T00:58:18;17.00;99.90
26803;DHT22;14378;51.796;5.808;2023-07-31T01:00:19;16.90;99.90
26803;DHT22;14378;51.796;5.808;2023-07-31T01:02:20;17.00;99.90
26803;DHT22;14378;51.796;5.808;2023-07-31T01:04:21;17.00;99.90
26803;DHT22;14378;51.796;5.808;2023-07-31T01:06:40;17.00;99.90
26803;DHT22;14378;51.796;5.808;2023-07-31T01:09:03;17.00;99.90
26803;DHT22;14378;51.796;5.808;2023-07-31T01:11:14;17.00;99.90
26803;DHT22;14378;51.796;5.808;2023-07-31T01:13:17;16.90;99.90
26803;DHT22;14378;51.796;5.808;2023-07-31T01:15:19;17.00;99.90
26803;DHT22;14378;51.796;5.808;2023-07-31T01:17:20;17.00;99.90
26803;DHT22;14378;51.796;5.808;2023-07-31T01:19:25;17.00;99.90
26803;DHT22;14378;51.796;5.808;2023-07-31T01:24:23;17.00;99.90
26803;DHT22;14378;51.796;5.808;2023-07-31T01:26:30;16.90;99.90
26803;DHT22;14378;51.796;5.808;2023-07-31T01:28:53;16.90;99.90
26803;DHT22;14378;51.796;5.808;2023-07-31T01:30:58;16.90;99.90
26803;DHT22;14378;51.796;5.808;2023-07-31T01:33:00;16.90;99.90
26803;DHT22;14378;51.796;5.808;2023-07-31T01:35:04;16.90;99.90
26803;DHT22;14378;51.796;5.808;2023-07-31T01:37:05;16.90;99.90
26803;DHT22;14378;51.796;5.808;2023-07-31T01:39:06;16.90;99.90
26803;DHT22;14378;51.796;5.808;2023-07-31T01:41:07;17.00;99.90
26803;DHT22;14378;51.796;5.808;2023-07-31T01:43:08;16.90;99.90
26803;DHT22;14378;51.796;5.808;2023-07-31T01:45:09;16.90;99.90
26803;DHT22;14378;51.796;5.808;2023-07-31T01:47:10;16.90;99.90
26803;DHT22;14378;51.796;5.808;2023-07-31T01:49:11;17.00;99.90
26803;DHT22;14378;51.796;5.808;2023-07-31T01:51:12;17.00;99.90
26803;DHT22;14378;51.796;5.808;2023-07-31T01:53:13;17.00;99.90
26803;DHT22;14378;51.796;5.808;2023-07-31T01:55:13;17.00;99.90
26803;DHT22;14378;51.796;5.808;2023-07-31T01:57:14;17.00;99.90
26803;DHT22;14378;51.796;5.808;2023-07-31T01:59:15;17.00;99.90
26803;DHT22;14378;51.796;5.808;2023-07-31T02:01:16;16.90;99.90
26803;DHT22;14378;51.796;5.808;2023-07-31T02:03:17;17.00;99.90
26803;DHT22;14378;51.796;5.808;2023-07-31T02:05:18;17.00;99.90
26803;DHT22;14378;51.796;5.808;2023-07-31T02:07:19;17.00;99.90
26803;DHT22;14378;51.796;5.808;2023-07-31T02:09:19;16.90;99.90
26803;DHT22;14378;51.796;5.808;2023-07-31T02:11:20;17.00;99.90
26803;DHT22;14378;51.796;5.808;2023-07-31T02:13:24;16.90;99.90
26803;DHT22;14378;51.796;5.808;2023-07-31T02:15:24;16.90;99.90
26803;DHT22;14378;51.796;5.808;2023-07-31T02:17:25;16.90;99.90
26803;DHT22;14378;51.796;5.808;2023-07-31T02:19:26;16.90;99.90
26803;DHT22;14378;51.796;5.808;2023-07-31T02:21:27;16.90;99.90
26803;DHT22;14378;51.796;5.808;2023-07-31T02:23:28;16.90;99.90
26803;DHT22;14378;51.796;5.808;2023-07-31T02:25:29;16.90;99.90
26803;DHT22;14378;51.796;5.808;2023-07-31T02:27:30;17.00;99.90
26803;DHT22;14378;51.796;5.808;2023-07-31T02:29:30;16.90;99.90
26803;DHT22;14378;51.796;5.808;2023-07-31T02:31:31;16.90;99.90
26803;DHT22;14378;51.796;5.808;2023-07-31T02:33:32;16.90;99.90
26803;DHT22;14378;51.796;5.808;2023-07-31T02:35:33;16.90;99.90
26803;DHT22;14378;51.796;5.808;2023-07-31T02:37:34;16.90;99.90
26803;DHT22;14378;51.796;5.808;2023-07-31T02:39:35;17.00;99.90
26803;DHT22;14378;51.796;5.808;2023-07-31T02:41:35;16.90;99.90
26803;DHT22;14378;51.796;5.808;2023-07-31T02:43:36;17.00;99.90
26803;DHT22;14378;51.796;5.808;2023-07-31T02:45:37;17.00;99.90
26803;DHT22;14378;51.796;5.808;2023-07-31T02:47:38;16.90;99.90
26803;DHT22;14378;51.796;5.808;2023-07-31T02:49:38;16.90;99.90
26803;DHT22;14378;51.796;5.808;2023-07-31T02:51:40;16.90;99.90
26803;DHT22;14378;51.796;5.808;2023-07-31T02:53:40;16.90;99.90
26803;DHT22;14378;51.796;5.808;2023-07-31T02:55:41;16.90;99.90
26803;DHT22;14378;51.796;5.808;2023-07-31T02:57:42;16.90;99.90
26803;DHT22;14378;51.796;5.808;2023-07-31T02:59:43;16.90;99.90
26803;DHT22;14378;51.796;5.808;2023-07-31T03:01:44;16.80;99.90
26803;DHT22;14378;51.796;5.808;2023-07-31T03:03:45;16.80;99.90
26803;DHT22;14378;51.796;5.808;2023-07-31T03:05:46;16.90;99.90
26803;DHT22;14378;51.796;5.808;2023-07-31T03:07:47;16.80;99.90
26803;DHT22;14378;51.796;5.808;2023-07-31T03:09:47;16.80;99.90
26803;DHT22;14378;51.796;5.808;2023-07-31T03:11:49;16.80;99.90
26803;DHT22;14378;51.796;5.808;2023-07-31T03:13:50;16.80;99.90
26803;DHT22;14378;51.796;5.808;2023-07-31T03:15:51;16.80;99.90
26803;DHT22;14378;51.796;5.808;2023-07-31T03:17:51;16.80;99.90
26803;DHT22;14378;51.796;5.808;2023-07-31T03:19:52;16.80;99.90
26803;DHT22;14378;51.796;5.808;2023-07-31T03:21:53;16.80;99.90
26803;DHT22;14378;51.796;5.808;2023-07-31T03:23:54;16.80;99.90
26803;DHT22;14378;51.796;5.808;2023-07-31T03:26:00;16.80;99.90
26803;DHT22;14378;51.796;5.808;2023-07-31T03:28:04;16.80;99.90
26803;DHT22;14378;51.796;5.808;2023-07-31T03:30:06;16.80;99.90
26803;DHT22;14378;51.796;5.808;2023-07-31T03:32:07;16.80;99.90
26803;DHT22;14378;51.796;5.808;2023-07-31T03:34:08;16.80;99.90
26803;DHT22;14378;51.796;5.808;2023-07-31T03:36:09;16.80;99.90
26803;DHT22;14378;51.796;5.808;2023-07-31T03:38:10;16.80;99.90
26803;DHT22;14378;51.796;5.808;2023-07-31T03:40:11;16.80;99.90
26803;DHT22;14378;51.796;5.808;2023-07-31T03:42:12;16.80;99.90
26803;DHT22;14378;51.796;5.808;2023-07-31T03:44:13;16.80;99.90
26803;DHT22;14378;51.796;5.808;2023-07-31T03:46:14;16.80;99.90
26803;DHT22;14378;51.796;5.808;2023-07-31T03:48:15;16.70;99.90
26803;DHT22;14378;51.796;5.808;2023-07-31T03:50:16;16.80;99.90
26803;DHT22;14378;51.796;5.808;2023-07-31T03:52:18;16.70;99.90
26803;DHT22;14378;51.796;5.808;2023-07-31T03:54:18;16.70;99.90
26803;DHT22;14378;51.796;5.808;2023-07-31T03:56:19;16.70;99.90
26803;DHT22;14378;51.796;5.808;2023-07-31T03:58:20;16.70;99.90
26803;DHT22;14378;51.796;5.808;2023-07-31T04:00:21;16.70;99.90
26803;DHT22;14378;51.796;5.808;2023-07-31T04:02:22;16.70;99.90
26803;DHT22;14378;51.796;5.808;2023-07-31T04:04:23;16.70;99.90
26803;DHT22;14378;51.796;5.808;2023-07-31T04:06:24;16.70;99.90
26803;DHT22;14378;51.796;5.808;2023-07-31T04:08:25;16.70;99.90
26803;DHT22;14378;51.796;5.808;2023-07-31T04:10:25;16.70;99.90
26803;DHT22;14378;51.796;5.808;2023-07-31T04:12:26;16.70;99.90
26803;DHT22;14378;51.796;5.808;2023-07-31T04:14:27;16.70;99.90
26803;DHT22;14378;51.796;5.808;2023-07-31T04:16:28;16.70;99.90
26803;DHT22;14378;51.796;5.808;2023-07-31T04:18:29;16.70;99.90
26803;DHT22;14378;51.796;5.808;2023-07-31T04:20:31;16.70;99.90
26803;DHT22;14378;51.796;5.808;2023-07-31T04:22:32;16.70;99.90
26803;DHT22;14378;51.796;5.808;2023-07-31T04:24:33;16.70;99.90
26803;DHT22;14378;51.796;5.808;2023-07-31T04:26:33;16.70;99.90
26803;DHT22;14378;51.796;5.808;2023-07-31T04:28:34;16.70;99.90
26803;DHT22;14378;51.796;5.808;2023-07-31T04:30:35;16.70;99.90
26803;DHT22;14378;51.796;5.808;2023-07-31T04:32:37;16.70;99.90
26803;DHT22;14378;51.796;5.808;2023-07-31T04:34:37;16.80;99.90
26803;DHT22;14378;51.796;5.808;2023-07-31T04:36:38;16.70;99.90
26803;DHT22;14378;51.796;5.808;2023-07-31T04:38:39;16.80;99.90
26803;DHT22;14378;51.796;5.808;2023-07-31T04:40:41;16.80;99.90
26803;DHT22;14378;51.796;5.808;2023-07-31T04:42:42;16.80;99.90
26803;DHT22;14378;51.796;5.808;2023-07-31T04:44:43;16.80;99.90
26803;DHT22;14378;51.796;5.808;2023-07-31T04:46:44;16.80;99.90
26803;DHT22;14378;51.796;5.808;2023-07-31T04:48:44;16.80;99.90
26803;DHT22;14378;51.796;5.808;2023-07-31T04:50:45;16.80;99.90
26803;DHT22;14378;51.796;5.808;2023-07-31T04:52:46;16.80;99.90
26803;DHT22;14378;51.796;5.808;2023-07-31T04:54:47;16.90;99.90
26803;DHT22;14378;51.796;5.808;2023-07-31T04:56:48;16.90;99.90
26803;DHT22;14378;51.796;5.808;2023-07-31T04:58:48;16.90;99.90
26803;DHT22;14378;51.796;5.808;2023-07-31T05:00:49;16.90;99.90
26803;DHT22;14378;51.796;5.808;2023-07-31T05:02:50;16.90;99.90
26803;DHT22;14378;51.796;5.808;2023-07-31T05:04:51;16.90;99.90
26803;DHT22;14378;51.796;5.808;2023-07-31T05:06:52;16.90;99.90
26803;DHT22;14378;51.796;5.808;2023-07-31T05:08:52;17.00;99.90
26803;DHT22;14378;51.796;5.808;2023-07-31T05:10:53;17.00;99.90
26803;DHT22;14378;51.796;5.808;2023-07-31T05:12:54;17.00;99.90
26803;DHT22;14378;51.796;5.808;2023-07-31T05:14:55;17.00;99.90
26803;DHT22;14378;51.796;5.808;2023-07-31T05:16:56;16.90;99.90
26803;DHT22;14378;51.796;5.808;2023-07-31T05:18:56;17.00;99.90
26803;DHT22;14378;51.796;5.808;2023-07-31T05:20:57;17.00;99.90
26803;DHT22;14378;51.796;5.808;2023-07-31T05:22:58;17.00;99.90
26803;DHT22;14378;51.796;5.808;2023-07-31T05:24:59;17.00;99.90
26803;DHT22;14378;51.796;5.808;2023-07-31T05:27:00;17.00;99.90
26803;DHT22;14378;51.796;5.808;2023-07-31T05:29:01;17.00;99.90
26803;DHT22;14378;51.796;5.808;2023-07-31T05:31:02;17.00;99.90
26803;DHT22;14378;51.796;5.808;2023-07-31T05:33:03;16.90;99.90
26803;DHT22;14378;51.796;5.808;2023-07-31T05:35:04;17.00;99.90
26803;DHT22;14378;51.796;5.808;2023-07-31T05:37:05;17.00;99.90
26803;DHT22;14378;51.796;5.808;2023-07-31T05:39:09;17.00;99.90
26803;DHT22;14378;51.796;5.808;2023-07-31T05:41:11;16.90;99.90
26803;DHT22;14378;51.796;5.808;2023-07-31T05:43:12;17.00;99.90
26803;DHT22;14378;51.796;5.808;2023-07-31T05:45:13;17.00;99.90
26803;DHT22;14378;51.796;5.808;2023-07-31T05:47:14;16.90;99.90
26803;DHT22;14378;51.796;5.808;2023-07-31T05:49:15;16.90;99.90
26803;DHT22;14378;51.796;5.808;2023-07-31T05:51:16;16.90;99.90
26803;DHT22;14378;51.796;5.808;2023-07-31T05:53:17;16.90;99.90
26803;DHT22;14378;51.796;5.808;2023-07-31T05:55:18;17.00;99.90
26803;DHT22;14378;51.796;5.808;2023-07-31T05:57:19;16.90;99.90
26803;DHT22;14378;51.796;5.808;2023-07-31T05:59:20;16.90;99.90
26803;DHT22;14378;51.796;5.808;2023-07-31T06:01:20;16.90;99.90
26803;DHT22;14378;51.796;5.808;2023-07-31T06:03:22;16.90;99.90
26803;DHT22;14378;51.796;5.808;2023-07-31T06:05:22;16.90;99.90
26803;DHT22;14378;51.796;5.808;2023-07-31T06:07:23;16.90;99.90
26803;DHT22;14378;51.796;5.808;2023-07-31T06:09:24;16.90;99.90
26803;DHT22;14378;51.796;5.808;2023-07-31T06:11:26;16.90;99.90
26803;DHT22;14378;51.796;5.808;2023-07-31T06:13:27;16.90;99.90
26803;DHT22;14378;51.796;5.808;2023-07-31T06:15:27;16.90;99.90
26803;DHT22;14378;51.796;5.808;2023-07-31T06:17:28;17.00;99.90
26803;DHT22;14378;51.796;5.808;2023-07-31T06:19:30;16.90;99.90
26803;DHT22;14378;51.796;5.808;2023-07-31T06:21:31;17.00;99.90
26803;DHT22;14378;51.796;5.808;2023-07-31T06:23:32;17.00;99.90
26803;DHT22;14378;51.796;5.808;2023-07-31T06:25:33;17.00;99.90
26803;DHT22;14378;51.796;5.808;2023-07-31T06:27:34;17.00;99.90
26803;DHT22;14378;51.796;5.808;2023-07-31T06:29:35;17.00;99.90
26803;DHT22;14378;51.796;5.808;2023-07-31T06:31:35;17.00;99.90
26803;DHT22;14378;51.796;5.808;2023-07-31T06:33:36;17.10;99.90
26803;DHT22;14378;51.796;5.808;2023-07-31T06:35:37;17.10;99.90
26803;DHT22;14378;51.796;5.808;2023-07-31T06:37:38;17.10;99.90
26803;DHT22;14378;51.796;5.808;2023-07-31T06:39:40;17.10;99.90
26803;DHT22;14378;51.796;5.808;2023-07-31T06:41:42;17.00;99.90
26803;DHT22;14378;51.796;5.808;2023-07-31T06:43:44;17.10;99.90
26803;DHT22;14378;51.796;5.808;2023-07-31T06:45:45;17.10;99.90
26803;DHT22;14378;51.796;5.808;2023-07-31T06:47:46;17.10;99.90
26803;DHT22;14378;51.796;5.808;2023-07-31T06:49:47;17.10;99.90
26803;DHT22;14378;51.796;5.808;2023-07-31T06:51:48;17.00;99.90
26803;DHT22;14378;51.796;5.808;2023-07-31T06:53:49;17.10;99.90
26803;DHT22;14378;51.796;5.808;2023-07-31T06:55:51;17.00;99.90
26803;DHT22;14378;51.796;5.808;2023-07-31T06:57:54;17.10;99.90
26803;DHT22;14378;51.796;5.808;2023-07-31T06:59:55;17.00;99.90
26803;DHT22;14378;51.796;5.808;2023-07-31T07:01:56;17.00;99.90
26803;DHT22;14378;51.796;5.808;2023-07-31T07:03:57;17.00;99.90
26803;DHT22;14378;51.796;5.808;2023-07-31T07:05:58;17.10;99.90
26803;DHT22;14378;51.796;5.808;2023-07-31T07:07:59;17.10;99.90
26803;DHT22;14378;51.796;5.808;2023-07-31T07:09:59;17.10;99.90
26803;DHT22;14378;51.796;5.808;2023-07-31T07:12:00;17.20;99.90
26803;DHT22;14378;51.796;5.808;2023-07-31T07:14:01;17.20;99.90
26803;DHT22;14378;51.796;5.808;2023-07-31T07:16:02;17.20;99.90
26803;DHT22;14378;51.796;5.808;2023-07-31T07:18:03;17.30;99.90
26803;DHT22;14378;51.796;5.808;2023-07-31T07:20:05;17.20;99.90
26803;DHT22;14378;51.796;5.808;2023-07-31T07:22:06;17.20;99.90
26803;DHT22;14378;51.796;5.808;2023-07-31T07:24:07;17.30;99.90
26803;DHT22;14378;51.796;5.808;2023-07-31T07:26:08;17.30;99.90
26803;DHT22;14378;51.796;5.808;2023-07-31T07:28:10;17.30;99.90
26803;DHT22;14378;51.796;5.808;2023-07-31T07:30:11;17.30;99.90
26803;DHT22;14378;51.796;5.808;2023-07-31T07:32:15;17.30;99.90
26803;DHT22;14378;51.796;5.808;2023-07-31T07:34:16;17.40;99.90
26803;DHT22;14378;51.796;5.808;2023-07-31T07:36:16;17.40;99.90
26803;DHT22;14378;51.796;5.808;2023-07-31T07:38:17;17.30;99.90
26803;DHT22;14378;51.796;5.808;2023-07-31T07:40:20;17.30;99.90
26803;DHT22;14378;51.796;5.808;2023-07-31T07:42:21;17.30;99.90
26803;DHT22;14378;51.796;5.808;2023-07-31T07:44:22;17.40;99.90
26803;DHT22;14378;51.796;5.808;2023-07-31T07:46:22;17.40;99.90
26803;DHT22;14378;51.796;5.808;2023-07-31T07:48:23;17.40;99.90
26803;DHT22;14378;51.796;5.808;2023-07-31T07:50:25;17.40;99.90
26803;DHT22;14378;51.796;5.808;2023-07-31T07:52:26;17.40;99.90
26803;DHT22;14378;51.796;5.808;2023-07-31T07:54:27;17.40;99.90
26803;DHT22;14378;51.796;5.808;2023-07-31T07:56:28;17.40;99.90
26803;DHT22;14378;51.796;5.808;2023-07-31T07:58:29;17.40;99.90
26803;DHT22;14378;51.796;5.808;2023-07-31T08:00:30;17.40;99.90
26803;DHT22;14378;51.796;5.808;2023-07-31T08:02:30;17.40;99.90
26803;DHT22;14378;51.796;5.808;2023-07-31T08:04:31;17.40;99.90
26803;DHT22;14378;51.796;5.808;2023-07-31T08:06:32;17.50;99.90
26803;DHT22;14378;51.796;5.808;2023-07-31T08:08:33;17.50;99.90
26803;DHT22;14378;51.796;5.808;2023-07-31T08:10:33;17.50;99.90
26803;DHT22;14378;51.796;5.808;2023-07-31T08:12:34;17.50;99.90
26803;DHT22;14378;51.796;5.808;2023-07-31T08:14:35;17.50;99.90
26803;DHT22;14378;51.796;5.808;2023-07-31T08:16:36;17.50;99.90
26803;DHT22;14378;51.796;5.808;2023-07-31T08:18:37;17.50;99.90
26803;DHT22;14378;51.796;5.808;2023-07-31T08:20:38;17.50;99.90
26803;DHT22;14378;51.796;5.808;2023-07-31T08:22:39;17.50;99.90
26803;DHT22;14378;51.796;5.808;2023-07-31T08:24:40;17.50;99.90
26803;DHT22;14378;51.796;5.808;2023-07-31T08:26:41;17.50;99.90
26803;DHT22;14378;51.796;5.808;2023-07-31T08:28:42;17.50;99.90
26803;DHT22;14378;51.796;5.808;2023-07-31T08:30:43;17.50;99.90
26803;DHT22;14378;51.796;5.808;2023-07-31T08:32:43;17.50;99.90
26803;DHT22;14378;51.796;5.808;2023-07-31T08:34:44;17.50;99.90
26803;DHT22;14378;51.796;5.808;2023-07-31T08:36:45;17.50;99.90
26803;DHT22;14378;51.796;5.808;2023-07-31T08:38:46;17.50;99.90
26803;DHT22;14378;51.796;5.808;2023-07-31T08:40:48;17.50;99.90
26803;DHT22;14378;51.796;5.808;2023-07-31T08:42:51;17.50;99.90
26803;DHT22;14378;51.796;5.808;2023-07-31T08:44:53;17.60;99.90
26803;DHT22;14378;51.796;5.808;2023-07-31T08:46:54;17.50;99.90
26803;DHT22;14378;51.796;5.808;2023-07-31T08:48:58;17.50;99.90
26803;DHT22;14378;51.796;5.808;2023-07-31T08:50:59;17.60;99.90
26803;DHT22;14378;51.796;5.808;2023-07-31T08:53:03;17.60;99.90
26803;DHT22;14378;51.796;5.808;2023-07-31T08:55:04;17.60;99.90
26803;DHT22;14378;51.796;5.808;2023-07-31T08:57:05;17.60;99.90
26803;DHT22;14378;51.796;5.808;2023-07-31T08:59:11;17.60;99.90
26803;DHT22;14378;51.796;5.808;2023-07-31T09:01:13;17.60;99.90
26803;DHT22;14378;51.796;5.808;2023-07-31T09:03:17;17.50;99.90
26803;DHT22;14378;51.796;5.808;2023-07-31T09:05:19;17.60;99.90
26803;DHT22;14378;51.796;5.808;2023-07-31T09:07:21;17.60;99.90
26803;DHT22;14378;51.796;5.808;2023-07-31T09:09:22;17.60;99.90
26803;DHT22;14378;51.796;5.808;2023-07-31T09:11:24;17.60;99.90
26803;DHT22;14378;51.796;5.808;2023-07-31T09:13:27;17.60;99.90
26803;DHT22;14378;51.796;5.808;2023-07-31T09:15:28;17.60;99.90
26803;DHT22;14378;51.796;5.808;2023-07-31T09:17:30;17.60;99.90
26803;DHT22;14378;51.796;5.808;2023-07-31T09:19:35;17.60;99.90
26803;DHT22;14378;51.796;5.808;2023-07-31T09:21:50;17.60;99.90
26803;DHT22;14378;51.796;5.808;2023-07-31T09:23:51;17.60;99.90
26803;DHT22;14378;51.796;5.808;2023-07-31T09:25:54;17.60;99.90
26803;DHT22;14378;51.796;5.808;2023-07-31T09:27:58;17.60;99.90
26803;DHT22;14378;51.796;5.808;2023-07-31T09:29:59;17.60;99.90
26803;DHT22;14378;51.796;5.808;2023-07-31T09:32:00;17.70;99.90
26803;DHT22;14378;51.796;5.808;2023-07-31T09:34:01;17.60;99.90
26803;DHT22;14378;51.796;5.808;2023-07-31T09:36:04;17.60;99.90
26803;DHT22;14378;51.796;5.808;2023-07-31T09:38:07;17.70;99.90
26803;DHT22;14378;51.796;5.808;2023-07-31T09:40:09;17.60;99.90
26803;DHT22;14378;51.796;5.808;2023-07-31T09:42:26;17.60;99.90
26803;DHT22;14378;51.796;5.808;2023-07-31T09:44:40;17.70;99.90
26803;DHT22;14378;51.796;5.808;2023-07-31T09:46:41;17.70;99.90
26803;DHT22;14378;51.796;5.808;2023-07-31T09:48:43;17.70;99.90
26803;DHT22;14378;51.796;5.808;2023-07-31T09:50:46;17.70;99.90
26803;DHT22;14378;51.796;5.808;2023-07-31T09:52:51;17.70;99.90
26803;DHT22;14378;51.796;5.808;2023-07-31T09:54:52;17.70;99.90
26803;DHT22;14378;51.796;5.808;2023-07-31T09:56:54;17.80;99.90
26803;DHT22;14378;51.796;5.808;2023-07-31T09:58:56;17.70;99.90
26803;DHT22;14378;51.796;5.808;2023-07-31T10:00:58;17.80;99.90
26803;DHT22;14378;51.796;5.808;2023-07-31T10:03:08;17.80;99.90
26803;DHT22;14378;51.796;5.808;2023-07-31T10:05:13;17.70;99.90
26803;DHT22;14378;51.796;5.808;2023-07-31T10:07:17;17.70;99.90
26803;DHT22;14378;51.796;5.808;2023-07-31T10:09:18;17.80;99.90
26803;DHT22;14378;51.796;5.808;2023-07-31T10:11:22;17.70;99.90
26803;DHT22;14378;51.796;5.808;2023-07-31T10:13:25;17.80;99.90
26803;DHT22;14378;51.796;5.808;2023-07-31T10:15:28;17.80;99.90
26803;DHT22;14378;51.796;5.808;2023-07-31T10:17:31;17.90;99.90
26803;DHT22;14378;51.796;5.808;2023-07-31T10:19:32;17.90;99.90
26803;DHT22;14378;51.796;5.808;2023-07-31T10:21:33;17.90;99.90
26803;DHT22;14378;51.796;5.808;2023-07-31T10:23:36;18.00;99.90
26803;DHT22;14378;51.796;5.808;2023-07-31T10:25:37;18.10;99.90
26803;DHT22;14378;51.796;5.808;2023-07-31T10:27:39;18.10;99.90
26803;DHT22;14378;51.796;5.808;2023-07-31T10:29:43;18.20;99.90
26803;DHT22;14378;51.796;5.808;2023-07-31T10:31:45;18.30;99.90
26803;DHT22;14378;51.796;5.808;2023-07-31T10:33:46;18.40;99.90
26803;DHT22;14378;51.796;5.808;2023-07-31T10:35:47;18.40;99.90
26803;DHT22;14378;51.796;5.808;2023-07-31T10:37:49;18.60;99.90
26803;DHT22;14378;51.796;5.808;2023-07-31T10:41:59;18.70;99.90
26803;DHT22;14378;51.796;5.808;2023-07-31T10:44:01;18.70;99.90
26803;DHT22;14378;51.796;5.808;2023-07-31T10:46:06;18.90;99.90
26803;DHT22;14378;51.796;5.808;2023-07-31T10:48:15;18.90;99.90
26803;DHT22;14378;51.796;5.808;2023-07-31T10:52:20;19.00;99.90
26803;DHT22;14378;51.796;5.808;2023-07-31T10:54:23;19.00;99.90
26803;DHT22;14378;51.796;5.808;2023-07-31T10:56:25;19.00;99.90
26803;DHT22;14378;51.796;5.808;2023-07-31T10:58:26;19.00;99.90
26803;DHT22;14378;51.796;5.808;2023-07-31T11:00:30;18.90;99.90
26803;DHT22;14378;51.796;5.808;2023-07-31T11:02:33;18.90;99.90
26803;DHT22;14378;51.796;5.808;2023-07-31T11:04:34;18.90;99.90
26803;DHT22;14378;51.796;5.808;2023-07-31T11:06:36;18.90;99.90
26803;DHT22;14378;51.796;5.808;2023-07-31T11:08:43;18.90;99.90
26803;DHT22;14378;51.796;5.808;2023-07-31T11:10:44;18.90;99.90
26803;DHT22;14378;51.796;5.808;2023-07-31T11:12:46;19.00;99.90
26803;DHT22;14378;51.796;5.808;2023-07-31T11:14:56;19.00;99.90
26803;DHT22;14378;51.796;5.808;2023-07-31T11:16:57;18.90;99.90
26803;DHT22;14378;51.796;5.808;2023-07-31T11:18:58;18.90;99.90
26803;DHT22;14378;51.796;5.808;2023-07-31T11:20:59;18.90;99.90
26803;DHT22;14378;51.796;5.808;2023-07-31T11:23:06;18.90;99.90
26803;DHT22;14378;51.796;5.808;2023-07-31T11:25:07;18.90;99.90
26803;DHT22;14378;51.796;5.808;2023-07-31T11:27:09;18.90;99.90
26803;DHT22;14378;51.796;5.808;2023-07-31T11:29:13;18.90;99.90
26803;DHT22;14378;51.796;5.808;2023-07-31T11:31:14;18.90;99.90
26803;DHT22;14378;51.796;5.808;2023-07-31T11:33:15;18.90;99.90
26803;DHT22;14378;51.796;5.808;2023-07-31T11:35:16;18.90;99.90
26803;DHT22;14378;51.796;5.808;2023-07-31T11:37:17;18.90;99.90
26803;DHT22;14378;51.796;5.808;2023-07-31T11:39:18;18.90;99.90
26803;DHT22;14378;51.796;5.808;2023-07-31T11:41:19;19.00;99.90
26803;DHT22;14378;51.796;5.808;2023-07-31T11:43:23;19.10;99.90
26803;DHT22;14378;51.796;5.808;2023-07-31T11:45:27;19.10;99.90
26803;DHT22;14378;51.796;5.808;2023-07-31T11:47:28;19.00;99.90
26803;DHT22;14378;51.796;5.808;2023-07-31T11:49:32;19.00;99.90
26803;DHT22;14378;51.796;5.808;2023-07-31T11:51:33;19.00;99.90
26803;DHT22;14378;51.796;5.808;2023-07-31T11:53:45;19.00;99.90
26803;DHT22;14378;51.796;5.808;2023-07-31T11:55:47;19.10;99.90
26803;DHT22;14378;51.796;5.808;2023-07-31T11:57:48;19.00;99.90
26803;DHT22;14378;51.796;5.808;2023-07-31T11:59:50;19.00;99.90
26803;DHT22;14378;51.796;5.808;2023-07-31T12:01:52;19.00;99.90
26803;DHT22;14378;51.796;5.808;2023-07-31T12:03:54;19.00;99.90
26803;DHT22;14378;51.796;5.808;2023-07-31T12:05:55;19.00;99.90
26803;DHT22;14378;51.796;5.808;2023-07-31T12:07:56;19.10;99.90
26803;DHT22;14378;51.796;5.808;2023-07-31T12:09:58;19.10;99.90
26803;DHT22;14378;51.796;5.808;2023-07-31T12:12:01;19.10;99.90
26803;DHT22;14378;51.796;5.808;2023-07-31T12:14:04;19.10;99.90
26803;DHT22;14378;51.796;5.808;2023-07-31T12:16:06;19.10;99.90
26803;DHT22;14378;51.796;5.808;2023-07-31T12:18:12;19.10;99.90
26803;DHT22;14378;51.796;5.808;2023-07-31T12:20:13;19.10;99.90
26803;DHT22;14378;51.796;5.808;2023-07-31T12:22:15;19.10;99.90
26803;DHT22;14378;51.796;5.808;2023-07-31T12:24:19;19.10;99.90
26803;DHT22;14378;51.796;5.808;2023-07-31T12:26:19;19.00;99.90
26803;DHT22;14378;51.796;5.808;2023-07-31T12:28:22;19.00;99.90
26803;DHT22;14378;51.796;5.808;2023-07-31T12:30:31;19.00;99.90
26803;DHT22;14378;51.796;5.808;2023-07-31T12:32:33;19.00;99.90
26803;DHT22;14378;51.796;5.808;2023-07-31T12:34:42;19.00;99.90
26803;DHT22;14378;51.796;5.808;2023-07-31T12:36:44;19.00;99.90
26803;DHT22;14378;51.796;5.808;2023-07-31T12:38:45;19.10;99.90
26803;DHT22;14378;51.796;5.808;2023-07-31T12:40:46;19.10;99.90
26803;DHT22;14378;51.796;5.808;2023-07-31T12:42:47;19.00;99.90
26803;DHT22;14378;51.796;5.808;2023-07-31T12:44:49;19.10;99.90
26803;DHT22;14378;51.796;5.808;2023-07-31T12:46:50;19.10;99.90
26803;DHT22;14378;51.796;5.808;2023-07-31T12:48:51;19.10;99.90
26803;DHT22;14378;51.796;5.808;2023-07-31T12:50:52;19.10;99.90
26803;DHT22;14378;51.796;5.808;2023-07-31T12:52:53;19.10;99.90
26803;DHT22;14378;51.796;5.808;2023-07-31T12:54:55;19.10;99.90
26803;DHT22;14378;51.796;5.808;2023-07-31T12:56:56;19.10;99.90